All current conditions and weather history are recorded live from Forest Drive in Plover Wisconsin. Plover Weather is a Non Profit volunteer public donation funded site.

Live Plover Skycam  Live Plover Skycam




There are no active watches, warnings or advisories

Weather Underground History page Text

Daily Summary for October 22, 2017 Units:  English    Metric   Both
« Previous Day
Next Day »
Daily Weekly Monthly Yearly Custom
  Current: High: Low: Average:
Temperature: 49.6 °F 63.7 °F 49.1 °F 54.2 °F
Dew Point: 47.4 °F 58.7 °F 46.1 °F 51.7 °F
Humidity: 92 % 100 % 81 % 92 %
Wind Speed: 4.6 mph 27.6 mph 3.5 mph 8.4 mph
Wind Gust: 4.6 mph 27.6 mph - -
Wind:West - - West
Pressure: 29.97 in 29.97 in 29.82 in -
Precipitation: 0.19 in      
Historical Graphs
 
 
Tabular Data for October 22, 2017
Time Temperature Dew Point Pressure Wind Wind Speed Wind Gust Humidity Rainfall Rate (Hourly)
00:03 63.5 °F 57.6 °F 29.82 in South 27.6 mph 27.6 mph 81 % 0.00 in
00:08 63.5 °F 57.6 °F 29.82 in South 27.6 mph 27.6 mph 81 % 0.00 in
00:13 63.7 °F 57.7 °F 29.82 in South 27.6 mph 27.6 mph 81 % 0.00 in
00:18 63.7 °F 57.7 °F 29.82 in South 27.6 mph 27.6 mph 81 % 0.00 in
00:23 63.5 °F 57.9 °F 29.82 in South 27.6 mph 27.6 mph 82 % 0.00 in
00:28 63.5 °F 57.9 °F 29.82 in South 27.6 mph 27.6 mph 82 % 0.00 in
00:33 63.3 °F 57.7 °F 29.82 in South 27.6 mph 27.6 mph 82 % 0.00 in
00:38 63.3 °F 57.7 °F 29.82 in South 27.6 mph 27.6 mph 82 % 0.00 in
00:43 63.3 °F 57.7 °F 29.82 in South 27.6 mph 27.6 mph 82 % 0.00 in
00:48 63.5 °F 57.9 °F 29.82 in South 27.6 mph 27.6 mph 82 % 0.00 in
00:53 63.5 °F 57.9 °F 29.82 in South 27.6 mph 27.6 mph 82 % 0.00 in
00:58 63.5 °F 57.9 °F 29.82 in South 27.6 mph 27.6 mph 82 % 0.00 in
01:03 63.5 °F 57.9 °F 29.82 in South 11.5 mph 11.5 mph 82 % 0.00 in
01:08 63.7 °F 58.1 °F 29.82 in South 11.5 mph 11.5 mph 82 % 0.00 in
01:13 63.7 °F 58.1 °F 29.82 in South 11.5 mph 11.5 mph 82 % 0.00 in
01:18 63.7 °F 57.7 °F 29.82 in South 11.5 mph 11.5 mph 81 % 0.00 in
01:23 63.7 °F 57.7 °F 29.85 in SSW 10.4 mph 10.4 mph 81 % 0.00 in
01:28 63.7 °F 57.7 °F 29.85 in SSW 10.4 mph 10.4 mph 81 % 0.00 in
01:33 63.7 °F 57.7 °F 29.85 in West 6.9 mph 6.9 mph 81 % 0.00 in
01:38 63.7 °F 57.7 °F 29.85 in West 6.9 mph 6.9 mph 81 % 0.00 in
01:44 63.7 °F 57.7 °F 29.85 in South 6.9 mph 6.9 mph 81 % 0.00 in
01:48 61.7 °F 58.7 °F 29.85 in South 6.9 mph 6.9 mph 90 % 0.00 in
01:54 61.3 °F 58.7 °F 29.85 in South 6.9 mph 6.9 mph 91 % 0.00 in
01:59 61.0 °F 58.6 °F 29.85 in South 6.9 mph 6.9 mph 92 % 0.00 in
02:04 60.6 °F 58.3 °F 29.85 in South 5.8 mph 5.8 mph 92 % 0.00 in
02:09 60.6 °F 58.3 °F 29.85 in South 5.8 mph 5.8 mph 92 % 0.00 in
02:14 60.6 °F 58.3 °F 29.85 in South 5.8 mph 5.8 mph 92 % 0.00 in
02:19 60.6 °F 58.3 °F 29.85 in South 5.8 mph 5.8 mph 92 % 0.00 in
02:24 59.4 °F 57.6 °F 29.85 in South 5.8 mph 5.8 mph 94 % 0.00 in
02:29 59.4 °F 57.9 °F 29.85 in South 5.8 mph 5.8 mph 95 % 0.00 in
02:34 59.4 °F 57.9 °F 29.85 in South 5.8 mph 5.8 mph 95 % 0.00 in
02:39 59.2 °F 57.7 °F 29.85 in South 5.8 mph 5.8 mph 95 % 0.00 in
02:44 59.2 °F 57.7 °F 29.85 in South 5.8 mph 5.8 mph 95 % 0.03 in
02:49 59.0 °F 57.9 °F 29.85 in South 5.8 mph 5.8 mph 96 % 0.03 in
02:54 59.0 °F 57.9 °F 29.85 in South 5.8 mph 5.8 mph 96 % 0.03 in
03:04 59.0 °F 57.9 °F 29.85 in SSW 4.6 mph 4.6 mph 96 % 0.03 in
03:09 58.5 °F 57.3 °F 29.85 in SSW 4.6 mph 4.6 mph 96 % 0.03 in
03:14 58.5 °F 57.3 °F 29.85 in SSW 4.6 mph 4.6 mph 96 % 0.03 in
03:19 58.1 °F 57.0 °F 29.82 in SSW 4.6 mph 4.6 mph 96 % 0.03 in
03:24 58.1 °F 57.0 °F 29.82 in SSW 4.6 mph 4.6 mph 96 % 0.03 in
03:29 58.1 °F 57.3 °F 29.82 in SSW 4.6 mph 4.6 mph 97 % 0.03 in
03:34 57.9 °F 57.1 °F 29.82 in SSW 4.6 mph 4.6 mph 97 % 0.03 in
03:39 57.9 °F 57.1 °F 29.82 in SSW 4.6 mph 4.6 mph 97 % 0.03 in
03:44 57.9 °F 57.1 °F 29.82 in SSW 4.6 mph 4.6 mph 97 % 0.00 in
03:49 57.9 °F 57.1 °F 29.82 in SSW 4.6 mph 4.6 mph 97 % 0.00 in
03:54 57.9 °F 57.1 °F 29.82 in SSW 4.6 mph 4.6 mph 97 % 0.00 in
03:59 57.9 °F 57.1 °F 29.82 in SSW 4.6 mph 4.6 mph 97 % 0.00 in
04:04 57.7 °F 56.9 °F 29.82 in SW 5.8 mph 5.8 mph 97 % 0.00 in
04:09 57.7 °F 56.9 °F 29.82 in SW 5.8 mph 5.8 mph 97 % 0.00 in
04:14 57.2 °F 56.4 °F 29.82 in SW 5.8 mph 5.8 mph 97 % 0.00 in
04:19 57.0 °F 56.2 °F 29.82 in SW 5.8 mph 5.8 mph 97 % 0.00 in
04:24 56.8 °F 56.0 °F 29.85 in SW 5.8 mph 5.8 mph 97 % 0.00 in
04:29 56.7 °F 55.8 °F 29.85 in SW 5.8 mph 5.8 mph 97 % 0.00 in
04:34 56.3 °F 55.7 °F 29.85 in SW 5.8 mph 5.8 mph 98 % 0.00 in
04:39 56.1 °F 55.6 °F 29.82 in SW 5.8 mph 5.8 mph 98 % 0.00 in
04:44 55.9 °F 55.4 °F 29.82 in SSW 6.9 mph 6.9 mph 98 % 0.00 in
04:49 55.9 °F 55.4 °F 29.82 in SSW 6.9 mph 6.9 mph 98 % 0.00 in
04:54 56.3 °F 56.0 °F 29.82 in SSW 6.9 mph 6.9 mph 99 % 0.00 in
04:59 56.5 °F 56.2 °F 29.82 in SSW 6.9 mph 6.9 mph 99 % 0.00 in
05:04 56.5 °F 56.2 °F 29.82 in West 10.4 mph 10.4 mph 99 % 0.00 in
05:09 56.7 °F 56.4 °F 29.82 in West 10.4 mph 10.4 mph 99 % 0.00 in
05:14 56.7 °F 56.4 °F 29.82 in West 10.4 mph 10.4 mph 99 % 0.00 in
05:19 56.8 °F 56.6 °F 29.82 in West 10.4 mph 10.4 mph 99 % 0.00 in
05:24 56.8 °F 56.8 °F 29.85 in West 10.4 mph 10.4 mph 100 % 0.00 in
05:29 56.8 °F 56.8 °F 29.85 in West 10.4 mph 10.4 mph 100 % 0.00 in
05:39 57.0 °F 57.0 °F 29.85 in West 10.4 mph 10.4 mph 100 % 0.08 in
05:44 56.8 °F 56.8 °F 29.85 in West 10.4 mph 10.4 mph 100 % 0.08 in
05:49 56.7 °F 56.4 °F 29.85 in West 10.4 mph 10.4 mph 99 % 0.08 in
05:54 55.9 °F 54.2 °F 29.85 in West 10.4 mph 10.4 mph 94 % 0.08 in
05:59 54.9 °F 52.6 °F 29.85 in West 10.4 mph 10.4 mph 92 % 0.08 in
06:04 54.9 °F 52.6 °F 29.85 in West 8.1 mph 8.1 mph 92 % 0.08 in
06:09 54.1 °F 52.2 °F 29.88 in West 8.1 mph 8.1 mph 93 % 0.08 in
06:14 53.8 °F 52.1 °F 29.88 in WNW 10.4 mph 10.4 mph 94 % 0.08 in
06:19 53.6 °F 52.2 °F 29.88 in WNW 10.4 mph 10.4 mph 95 % 0.08 in
06:24 53.6 °F 52.2 °F 29.88 in WNW 10.4 mph 10.4 mph 95 % 0.08 in
06:29 53.2 °F 51.8 °F 29.88 in WNW 10.4 mph 10.4 mph 95 % 0.08 in
06:34 53.1 °F 51.4 °F 29.88 in WNW 10.4 mph 10.4 mph 94 % 0.04 in
06:39 52.9 °F 50.3 °F 29.88 in WNW 10.4 mph 10.4 mph 91 % 0.00 in
06:44 52.9 °F 50.0 °F 29.88 in WNW 10.4 mph 10.4 mph 90 % 0.00 in
06:49 52.5 °F 49.4 °F 29.88 in WNW 10.4 mph 10.4 mph 89 % 0.00 in
06:54 52.5 °F 49.1 °F 29.88 in WNW 10.4 mph 10.4 mph 88 % 0.00 in
06:59 52.5 °F 49.1 °F 29.88 in WNW 10.4 mph 10.4 mph 88 % 0.00 in
07:04 52.5 °F 49.4 °F 29.91 in WNW 6.9 mph 6.9 mph 89 % 0.00 in
07:09 52.5 °F 49.1 °F 29.91 in WNW 6.9 mph 6.9 mph 88 % 0.00 in
07:10 52.3 °F 48.9 °F 29.91 in WNW 6.9 mph 6.9 mph 88 % 0.00 in
07:15 52.3 °F 48.6 °F 29.91 in WNW 6.9 mph 6.9 mph 87 % 0.00 in
07:20 52.2 °F 48.4 °F 29.88 in WNW 6.9 mph 6.9 mph 87 % 0.00 in
07:25 52.0 °F 47.9 °F 29.88 in WNW 6.9 mph 6.9 mph 86 % 0.00 in
07:30 52.0 °F 47.9 °F 29.88 in WNW 6.9 mph 6.9 mph 86 % 0.00 in
07:35 51.8 °F 47.7 °F 29.91 in WNW 6.9 mph 6.9 mph 86 % 0.00 in
07:40 51.8 °F 47.7 °F 29.91 in WNW 6.9 mph 6.9 mph 86 % 0.00 in
07:45 51.6 °F 47.9 °F 29.91 in WNW 6.9 mph 6.9 mph 87 % 0.00 in
07:50 51.6 °F 47.9 °F 29.91 in WNW 6.9 mph 6.9 mph 87 % 0.00 in
07:55 51.6 °F 47.9 °F 29.91 in WNW 6.9 mph 6.9 mph 87 % 0.00 in
08:00 51.4 °F 48.0 °F 29.91 in WNW 6.9 mph 6.9 mph 88 % 0.00 in
08:05 51.3 °F 48.1 °F 29.91 in NW 8.1 mph 8.1 mph 89 % 0.00 in
08:10 51.3 °F 48.1 °F 29.91 in NW 8.1 mph 8.1 mph 89 % 0.00 in
08:15 50.9 °F 48.4 °F 29.91 in NW 8.1 mph 8.1 mph 91 % 0.00 in
08:20 50.7 °F 48.5 °F 29.91 in NW 8.1 mph 8.1 mph 92 % 0.00 in
08:21 50.7 °F 48.5 °F 29.91 in NW 8.1 mph 8.1 mph 92 % 0.00 in
08:26 50.4 °F 47.2 °F 29.91 in NW 8.1 mph 8.1 mph 89 % 0.00 in
08:31 49.8 °F 46.4 °F 29.91 in NW 8.1 mph 8.1 mph 88 % 0.00 in
08:36 49.6 °F 46.2 °F 29.94 in NW 8.1 mph 8.1 mph 88 % 0.00 in
08:41 49.6 °F 46.2 °F 29.94 in NW 8.1 mph 8.1 mph 88 % 0.00 in
08:46 49.5 °F 46.1 °F 29.94 in NW 8.1 mph 8.1 mph 88 % 0.00 in
08:51 49.5 °F 46.4 °F 29.94 in NW 8.1 mph 8.1 mph 89 % 0.00 in
08:56 49.5 °F 46.4 °F 29.94 in NW 8.1 mph 8.1 mph 89 % 0.00 in
09:01 49.5 °F 46.6 °F 29.94 in NW 8.1 mph 8.1 mph 90 % 0.00 in
09:06 49.5 °F 46.9 °F 29.94 in WNW 4.6 mph 4.6 mph 91 % 0.00 in
09:11 49.5 °F 46.9 °F 29.94 in WNW 4.6 mph 4.6 mph 91 % 0.00 in
09:16 49.6 °F 47.4 °F 29.94 in WNW 4.6 mph 4.6 mph 92 % 0.00 in
09:21 49.6 °F 47.7 °F 29.94 in WNW 4.6 mph 4.6 mph 93 % 0.04 in
09:26 49.6 °F 47.7 °F 29.94 in WNW 5.8 mph 5.8 mph 93 % 0.04 in
09:31 49.6 °F 47.7 °F 29.94 in WNW 5.8 mph 5.8 mph 93 % 0.04 in
09:36 49.6 °F 47.7 °F 29.94 in WNW 5.8 mph 5.8 mph 93 % 0.04 in
09:41 49.6 °F 47.7 °F 29.94 in WNW 5.8 mph 5.8 mph 93 % 0.04 in
09:46 49.6 °F 47.7 °F 29.94 in WNW 5.8 mph 5.8 mph 93 % 0.04 in
09:51 49.5 °F 47.5 °F 29.94 in WNW 5.8 mph 5.8 mph 93 % 0.04 in
09:56 49.5 °F 47.8 °F 29.94 in WNW 5.8 mph 5.8 mph 94 % 0.04 in
10:01 49.6 °F 48.0 °F 29.94 in WNW 5.8 mph 5.8 mph 94 % 0.04 in
10:06 49.6 °F 48.3 °F 29.94 in NW 8.1 mph 8.1 mph 95 % 0.04 in
10:11 49.8 °F 48.4 °F 29.94 in NW 8.1 mph 8.1 mph 95 % 0.04 in
10:16 49.6 °F 48.3 °F 29.94 in NW 8.1 mph 8.1 mph 95 % 0.04 in
10:21 49.6 °F 48.3 °F 29.94 in NW 8.1 mph 8.1 mph 95 % 0.00 in
10:26 49.8 °F 48.7 °F 29.94 in NW 8.1 mph 8.1 mph 96 % 0.00 in
10:31 49.8 °F 48.4 °F 29.94 in NW 8.1 mph 8.1 mph 95 % 0.00 in
10:36 49.6 °F 48.0 °F 29.94 in NW 8.1 mph 8.1 mph 94 % 0.00 in
10:41 49.5 °F 47.8 °F 29.94 in NW 8.1 mph 8.1 mph 94 % 0.00 in
10:46 49.6 °F 48.0 °F 29.94 in NW 8.1 mph 8.1 mph 94 % 0.00 in
10:49 49.5 °F 47.8 °F 29.94 in NW 8.1 mph 8.1 mph 94 % 0.00 in
10:54 49.5 °F 47.8 °F 29.94 in NW 8.1 mph 8.1 mph 94 % 0.00 in
10:59 49.5 °F 47.8 °F 29.94 in NW 8.1 mph 8.1 mph 94 % 0.00 in
11:03 49.5 °F 47.8 °F 29.94 in WNW 6.9 mph 6.9 mph 94 % 0.00 in
11:09 49.6 °F 48.3 °F 29.97 in WNW 6.9 mph 6.9 mph 95 % 0.00 in
11:13 49.6 °F 48.3 °F 29.97 in WNW 6.9 mph 6.9 mph 95 % 0.00 in
11:18 49.6 °F 48.0 °F 29.97 in WNW 6.9 mph 6.9 mph 94 % 0.00 in
11:24 49.8 °F 48.2 °F 29.97 in WNW 6.9 mph 6.9 mph 94 % 0.00 in
11:29 50.2 °F 48.2 °F 29.97 in WNW 6.9 mph 6.9 mph 93 % 0.00 in
11:34 50.2 °F 47.9 °F 29.97 in WNW 6.9 mph 6.9 mph 92 % 0.00 in
11:39 50.0 °F 48.1 °F 29.97 in WNW 6.9 mph 6.9 mph 93 % 0.00 in
11:44 50.0 °F 47.8 °F 29.97 in WNW 6.9 mph 6.9 mph 92 % 0.04 in
11:49 50.0 °F 47.8 °F 29.97 in WNW 6.9 mph 6.9 mph 92 % 0.04 in
11:54 49.6 °F 47.4 °F 29.97 in WNW 6.9 mph 6.9 mph 92 % 0.04 in
11:59 49.5 °F 47.2 °F 29.97 in WNW 6.9 mph 6.9 mph 92 % 0.04 in
12:04 49.5 °F 47.2 °F 29.97 in WNW 3.5 mph 3.5 mph 92 % 0.04 in
12:09 49.5 °F 47.2 °F 29.97 in WNW 3.5 mph 3.5 mph 92 % 0.04 in
12:14 49.3 °F 47.1 °F 29.97 in WNW 3.5 mph 3.5 mph 92 % 0.04 in
12:19 49.3 °F 47.1 °F 29.97 in WNW 3.5 mph 3.5 mph 92 % 0.04 in
12:24 49.3 °F 46.8 °F 29.97 in WNW 3.5 mph 3.5 mph 91 % 0.04 in
12:29 49.5 °F 47.2 °F 29.97 in WNW 3.5 mph 3.5 mph 92 % 0.04 in
12:34 49.6 °F 47.4 °F 29.97 in WNW 3.5 mph 3.5 mph 92 % 0.04 in
12:39 49.6 °F 47.4 °F 29.97 in WNW 3.5 mph 3.5 mph 92 % 0.04 in
12:44 49.6 °F 47.4 °F 29.97 in WNW 3.5 mph 3.5 mph 92 % 0.00 in
12:49 49.6 °F 47.4 °F 29.97 in WNW 3.5 mph 3.5 mph 92 % 0.00 in
12:54 49.5 °F 46.9 °F 29.97 in WNW 3.5 mph 3.5 mph 91 % 0.00 in
12:59 49.5 °F 46.9 °F 29.97 in WNW 3.5 mph 3.5 mph 91 % 0.00 in
13:04 49.5 °F 46.9 °F 29.97 in WNW 5.8 mph 5.8 mph 91 % 0.00 in
13:09 49.3 °F 46.5 °F 29.94 in WNW 5.8 mph 5.8 mph 90 % 0.00 in
13:14 49.1 °F 46.6 °F 29.94 in WNW 5.8 mph 5.8 mph 91 % 0.00 in
13:19 49.3 °F 46.8 °F 29.94 in WNW 5.8 mph 5.8 mph 91 % 0.00 in
13:24 49.3 °F 46.8 °F 29.97 in WNW 5.8 mph 5.8 mph 91 % 0.00 in
13:29 49.5 °F 46.9 °F 29.97 in WNW 5.8 mph 5.8 mph 91 % 0.00 in
13:34 49.5 °F 46.9 °F 29.97 in WNW 5.8 mph 5.8 mph 91 % 0.00 in
13:39 49.3 °F 46.8 °F 29.97 in WNW 5.8 mph 5.8 mph 91 % 0.00 in
13:44 49.3 °F 46.8 °F 29.97 in WNW 5.8 mph 5.8 mph 91 % 0.00 in
13:49 49.1 °F 46.6 °F 29.97 in WNW 5.8 mph 5.8 mph 91 % 0.00 in
13:54 49.1 °F 46.9 °F 29.97 in WNW 5.8 mph 5.8 mph 92 % 0.00 in
13:59 49.3 °F 47.1 °F 29.97 in WNW 5.8 mph 5.8 mph 92 % 0.00 in
14:04 49.3 °F 47.1 °F 29.97 in West 4.6 mph 4.6 mph 92 % 0.00 in
14:09 49.6 °F 47.4 °F 29.97 in West 4.6 mph 4.6 mph 92 % 0.00 in
14:14 49.6 °F 47.4 °F 29.97 in West 4.6 mph 4.6 mph 92 % 0.00 in
Live Plover WI Weather - NWS COOP 'PLOW3'
Compliments of Weather Underground - 3.25 mb

Script developed by  Jim McMurry - jmcmurry@mwt.net Adapted for the template by  Wim van der Kuil - Leuven-Template.eu

You find our weather info also at:

Weather Underground

Citizen Weather Observer Program (CWOP)

HAMweather, WeatherForYou, PWS Weather

Anything Weather

Equipment we use:

Weather-station
Davis VP2

Weather-program
Weather Display

Weather-server
Dell I7 WorkStation

Provider
FatCow

Davis VP2

Weather Display

Dell I7 WorkStation

FatCow